Delmar, South Carolina
Current Conditions -  °F | °C
As of 6:56 PM on Thursday 27 Nov 2014 (Local Time) from KCAE Reporting Station
Scattered Clouds Scattered Clouds  
Wind Chill: 44°   Ceiling: Unl
Heat Index: 49°   Visibility: 10mi
Dew Point: 30°   Wind: 13mph
Humidity: 48%   Direction: 280°W
Pressure: 30.23"   Gusts: NA
Location:  33.8822°N, 81.433°W
Report Text: KCAE 272356Z 28011KT 10SM SCT060 09/M01 A3023 RMK AO2 SLP236 T00941011 10133 20078 53025
Loading
Personal Weather Stations






























Interactive Weather Map New forecast layout! Learn more

10-Day Weather Forecast

Advertisements
Track Severe Weather on mobile